createdAt,value
2017-02-22T00:00:21.269Z,1005.61
2017-02-22T00:01:30.208Z,1005.6
2017-02-22T00:02:39.315Z,1005.57
2017-02-22T00:03:48.632Z,1005.57
2017-02-22T00:04:57.551Z,1005.53
2017-02-22T00:06:07.690Z,1005.46
2017-02-22T00:07:17.416Z,1005.39
2017-02-22T00:08:27.371Z,1005.39
2017-02-22T00:09:36.699Z,1005.4
2017-02-22T00:10:46.033Z,1005.49
2017-02-22T00:11:55.788Z,1005.34
2017-02-22T00:13:05.107Z,1005.29
2017-02-22T00:14:14.075Z,1005.32
2017-02-22T00:15:23.404Z,1005.23
2017-02-22T00:16:33.153Z,1005.08
2017-02-22T00:17:42.483Z,1005.08
2017-02-22T00:18:51.816Z,1005.03
2017-02-22T00:20:01.815Z,1004.92
2017-02-22T00:21:11.554Z,1005.01
2017-02-22T00:22:21.715Z,1004.91
2017-02-22T00:23:31.873Z,1004.85
2017-02-22T00:24:40.794Z,1004.75
2017-02-22T00:25:49.814Z,1004.78
2017-02-22T00:26:59.557Z,1004.68
2017-02-22T00:28:08.493Z,1004.6
2017-02-22T00:29:17.399Z,1004.55
2017-02-22T00:30:26.309Z,1004.63
2017-02-22T00:31:36.148Z,1004.6
2017-02-22T00:32:45.463Z,1004.53
2017-02-22T00:33:54.787Z,1004.54
2017-02-22T00:35:04.107Z,1004.44
2017-02-22T00:36:14.289Z,1004.56
2017-02-22T00:37:23.261Z,1004.5
2017-02-22T00:38:32.579Z,1004.42
2017-02-22T00:39:42.319Z,1004.45
2017-02-22T00:40:52.463Z,1004.4
2017-02-22T00:42:01.392Z,1004.42
2017-02-22T00:43:11.231Z,1004.32
2017-02-22T00:44:20.980Z,1004.28
2017-02-22T00:45:30.327Z,1004.32
2017-02-22T00:46:40.057Z,1004.23
2017-02-22T00:47:48.979Z,1004.2
2017-02-22T00:48:59.236Z,1004.16
2017-02-22T00:50:08.564Z,1004.18
2017-02-22T00:51:17.912Z,1004.14
2017-02-22T00:52:27.240Z,1004.09
2017-02-22T00:53:36.571Z,1004.06
2017-02-22T00:54:45.539Z,1004.01
2017-02-22T00:55:54.463Z,1004
2017-02-22T00:57:04.620Z,1004.02
2017-02-22T00:58:13.530Z,1004.11
2017-02-22T00:59:23.259Z,1003.95
2017-02-22T01:00:32.290Z,1003.89
2017-02-22T01:01:41.205Z,1003.88
2017-02-22T01:02:50.541Z,1003.88
2017-02-22T01:03:59.476Z,1003.9
2017-02-22T01:05:08.417Z,1003.75
2017-02-22T01:06:17.895Z,1003.72
2017-02-22T01:07:27.223Z,1003.85
2017-02-22T01:08:37.377Z,1003.67
2017-02-22T01:09:46.699Z,1003.69
2017-02-22T01:10:56.428Z,1003.51
2017-02-22T01:12:06.668Z,1003.57
2017-02-22T01:13:16.817Z,1003.57
2017-02-22T01:14:26.568Z,1003.5
2017-02-22T01:15:35.890Z,1003.46
2017-02-22T01:16:45.227Z,1003.38
2017-02-22T01:17:55.576Z,1003.43
2017-02-22T01:19:05.312Z,1003.43
2017-02-22T01:20:14.635Z,1003.45
2017-02-22T01:21:24.378Z,1003.39
2017-02-22T01:22:33.291Z,1003.3
2017-02-22T01:23:43.447Z,1003.29
2017-02-22T01:24:52.379Z,1003.3
2017-02-22T01:26:01.714Z,1003.33
2017-02-22T01:27:11.039Z,1003.26
2017-02-22T01:28:20.781Z,1003.09
2017-02-22T01:29:30.308Z,1003.24
2017-02-22T01:30:40.041Z,1003.4
2017-02-22T01:31:49.362Z,1003.02
2017-02-22T01:32:58.276Z,1003.05
2017-02-22T01:34:07.196Z,1003.01
2017-02-22T01:35:16.637Z,1003.09
2017-02-22T01:36:25.969Z,1003.03
2017-02-22T01:37:34.891Z,1002.98
2017-02-22T01:38:44.622Z,1002.96
2017-02-22T01:39:53.532Z,1002.93
2017-02-22T01:41:03.714Z,1002.81
2017-02-22T01:42:13.031Z,1002.84
2017-02-22T01:43:21.970Z,1002.81
2017-02-22T01:44:31.308Z,1002.79
2017-02-22T01:45:40.637Z,1002.81
2017-02-22T01:46:50.634Z,1002.7
2017-02-22T01:47:59.964Z,1002.72
2017-02-22T01:49:09.284Z,1002.68
2017-02-22T01:50:19.030Z,1002.69
2017-02-22T01:51:28.345Z,1002.71
2017-02-22T01:52:37.341Z,1002.57
2017-02-22T01:53:47.490Z,1002.59
2017-02-22T01:54:56.414Z,1002.52
2017-02-22T01:56:05.337Z,1002.55
2017-02-22T01:57:14.268Z,1002.46
2017-02-22T01:58:24.182Z,1002.45
2017-02-22T01:59:34.559Z,1002.49
2017-02-22T02:00:44.294Z,1002.51
2017-02-22T02:01:53.231Z,1002.42
2017-02-22T02:03:02.158Z,1002.4
2017-02-22T02:04:12.594Z,1002.4
2017-02-22T02:05:21.513Z,1002.38
2017-02-22T02:06:30.842Z,1002.3
2017-02-22T02:07:39.765Z,1002.33
2017-02-22T02:08:49.090Z,1002.27
2017-02-22T02:09:59.290Z,1002.3
2017-02-22T02:11:08.633Z,1002.19
2017-02-22T02:12:17.955Z,1002.35
2017-02-22T02:13:26.872Z,1002.14
2017-02-22T02:14:36.217Z,1002.07
2017-02-22T02:15:45.585Z,1002.03
2017-02-22T02:16:55.733Z,1002.02
2017-02-22T02:18:05.059Z,1002.08
2017-02-22T02:19:14.784Z,1001.94
2017-02-22T02:20:24.136Z,1002.01
2017-02-22T02:21:33.252Z,1001.99
2017-02-22T02:22:42.989Z,1001.98
2017-02-22T02:23:52.327Z,1001.97
2017-02-22T02:25:02.058Z,1001.96
2017-02-22T02:26:11.384Z,1001.93
2017-02-22T02:27:20.852Z,1002.01
2017-02-22T02:28:30.588Z,1001.85
2017-02-22T02:29:40.313Z,1001.84
2017-02-22T02:30:49.225Z,1001.78
2017-02-22T02:31:58.964Z,1001.85
2017-02-22T02:33:08.297Z,1001.84
2017-02-22T02:34:18.022Z,1001.7
2017-02-22T02:35:27.362Z,1001.76
2017-02-22T02:36:36.270Z,1001.69
2017-02-22T02:37:46.425Z,1001.61
2017-02-22T02:38:55.812Z,1001.64
2017-02-22T02:40:05.135Z,1001.53
2017-02-22T02:41:14.067Z,1001.61
2017-02-22T02:42:24.202Z,1001.58
2017-02-22T02:43:33.124Z,1001.59
2017-02-22T02:44:42.901Z,1001.6
2017-02-22T02:45:52.217Z,1001.58
2017-02-22T02:47:01.138Z,1001.59
2017-02-22T02:48:10.045Z,1001.57
2017-02-22T02:49:19.773Z,1001.53
2017-02-22T02:50:29.415Z,1001.55
2017-02-22T02:51:39.183Z,1001.61
2017-02-22T02:52:48.926Z,1001.48
2017-02-22T02:53:57.839Z,1001.51
2017-02-22T02:55:07.985Z,1001.48
2017-02-22T02:56:18.186Z,1001.45
2017-02-22T02:57:27.512Z,1001.43
2017-02-22T02:58:36.844Z,1001.37
2017-02-22T02:59:46.598Z,1001.39
2017-02-22T03:00:56.341Z,1001.33
2017-02-22T03:02:06.780Z,1001.31
2017-02-22T03:03:16.123Z,1001.25
2017-02-22T03:04:25.880Z,1001.33
2017-02-22T03:05:35.201Z,1001.2
2017-02-22T03:06:44.112Z,1001.12
2017-02-22T03:07:54.110Z,1001.16
2017-02-22T03:09:04.247Z,1001.2
2017-02-22T03:10:13.162Z,1001.19
2017-02-22T03:11:22.915Z,1001.04
2017-02-22T03:12:32.266Z,1001.08
2017-02-22T03:13:42.462Z,1001.08
2017-02-22T03:14:51.786Z,1001.07
2017-02-22T03:16:01.552Z,1001.09
2017-02-22T03:17:11.293Z,1001.08
2017-02-22T03:18:20.200Z,1000.99
2017-02-22T03:19:29.691Z,1001.02
2017-02-22T03:20:39.864Z,1001
2017-02-22T03:21:49.589Z,1001.08
2017-02-22T03:22:58.509Z,1001.01
2017-02-22T03:24:07.846Z,1000.93
2017-02-22T03:25:17.074Z,1001.01
2017-02-22T03:26:26.422Z,1000.97
2017-02-22T03:27:35.779Z,1000.96
2017-02-22T03:28:45.507Z,1000.97
2017-02-22T03:29:55.245Z,1000.88
2017-02-22T03:31:05.655Z,1000.93
2017-02-22T03:32:14.982Z,1000.88
2017-02-22T03:33:24.301Z,1000.88
2017-02-22T03:34:33.619Z,1000.87
2017-02-22T03:35:42.952Z,1000.86
2017-02-22T03:36:52.017Z,1000.83
2017-02-22T03:38:01.751Z,1000.85
2017-02-22T03:39:11.483Z,1000.97
2017-02-22T03:40:20.802Z,1000.94
2017-02-22T03:41:30.119Z,1000.88
2017-02-22T03:42:39.083Z,1000.82
2017-02-22T03:43:48.825Z,1000.91
2017-02-22T03:44:58.153Z,1000.86
2017-02-22T03:46:07.077Z,1000.97
2017-02-22T03:47:16.394Z,1000.83
2017-02-22T03:48:25.467Z,1000.88
2017-02-22T03:49:34.782Z,1000.85
2017-02-22T03:50:43.715Z,1000.84
2017-02-22T03:51:53.039Z,1000.8
2017-02-22T03:53:02.767Z,1000.82
2017-02-22T03:54:12.154Z,1000.82
2017-02-22T03:55:21.479Z,1000.89
2017-02-22T03:56:30.399Z,1000.85
2017-02-22T03:57:39.729Z,1000.89
2017-02-22T03:58:49.057Z,1000.89
2017-02-22T03:59:59.370Z,1001
2017-02-22T04:01:08.703Z,1000.97
2017-02-22T04:02:18.028Z,1000.98
2017-02-22T04:03:26.964Z,1000.86
2017-02-22T04:04:36.708Z,1000.82
2017-02-22T04:05:46.190Z,1000.75
2017-02-22T04:06:55.505Z,1000.78
2017-02-22T04:08:05.243Z,1000.79
2017-02-22T04:09:14.148Z,1000.77
2017-02-22T04:10:23.491Z,1000.82
2017-02-22T04:11:32.551Z,1000.78
2017-02-22T04:12:41.894Z,1000.74
2017-02-22T04:13:50.807Z,1000.69
2017-02-22T04:15:00.553Z,1000.79
2017-02-22T04:16:10.289Z,1000.91
2017-02-22T04:17:19.715Z,1000.71
2017-02-22T04:18:28.623Z,1000.73
2017-02-22T04:19:38.781Z,1000.96
2017-02-22T04:20:47.691Z,1000.74
2017-02-22T04:21:57.421Z,1000.78
2017-02-22T04:23:06.438Z,1000.77
2017-02-22T04:24:16.177Z,1000.7
2017-02-22T04:25:25.905Z,1000.68
2017-02-22T04:26:35.659Z,1000.71
2017-02-22T04:27:44.982Z,1000.65
2017-02-22T04:28:54.367Z,1000.59
2017-02-22T04:30:03.687Z,1000.46
2017-02-22T04:31:13.019Z,1000.57
2017-02-22T04:32:21.930Z,1000.53
2017-02-22T04:33:31.262Z,1000.43
2017-02-22T04:34:40.571Z,1000.53
2017-02-22T04:35:49.909Z,1000.5
2017-02-22T04:37:00.085Z,1000.56
2017-02-22T04:38:09.405Z,1000.53
2017-02-22T04:39:18.761Z,1000.51
2017-02-22T04:40:28.168Z,1000.43
2017-02-22T04:41:37.904Z,1000.65
2017-02-22T04:42:47.631Z,1000.41
2017-02-22T04:43:56.964Z,1000.63
2017-02-22T04:45:05.882Z,1000.37
2017-02-22T04:46:15.921Z,1000.35
2017-02-22T04:47:25.669Z,1000.39
2017-02-22T04:48:35.806Z,1000.4
2017-02-22T04:49:45.121Z,1000.37
2017-02-22T04:50:54.847Z,1000.45
2017-02-22T04:52:04.791Z,1000.31
2017-02-22T04:53:14.108Z,1000.4
2017-02-22T04:54:23.443Z,1000.4
2017-02-22T04:55:32.365Z,1000.4
2017-02-22T04:56:41.272Z,1000.33
2017-02-22T04:57:51.220Z,1000.28
2017-02-22T04:59:00.553Z,1000.25
2017-02-22T05:00:09.904Z,1000.2
2017-02-22T05:01:18.818Z,1000.21
2017-02-22T05:02:29.370Z,1000.22
2017-02-22T05:03:39.123Z,1000.32
2017-02-22T05:04:48.079Z,1000.17
2017-02-22T05:05:57.825Z,1000.17
2017-02-22T05:07:07.567Z,1000.17
2017-02-22T05:08:16.886Z,1000.23
2017-02-22T05:09:26.724Z,1000.08
2017-02-22T05:10:37.288Z,1000.15
2017-02-22T05:11:47.044Z,1000.14
2017-02-22T05:12:55.962Z,1000.08
2017-02-22T05:14:05.696Z,1000.09
2017-02-22T05:15:14.707Z,1000.04
2017-02-22T05:16:24.040Z,1000.01
2017-02-22T05:17:33.775Z,1000.07
2017-02-22T05:18:42.719Z,999.97
2017-02-22T05:19:52.461Z,999.92
2017-02-22T05:21:02.805Z,999.98
2017-02-22T05:22:12.578Z,1000
2017-02-22T05:23:22.317Z,999.95
2017-02-22T05:24:31.229Z,999.82
2017-02-22T05:25:41.004Z,999.83
2017-02-22T05:26:50.425Z,999.82
2017-02-22T05:28:00.176Z,999.81
2017-02-22T05:29:09.925Z,999.85
2017-02-22T05:30:19.257Z,999.75
2017-02-22T05:31:29.395Z,999.86
2017-02-22T05:32:39.610Z,999.94
2017-02-22T05:33:48.549Z,999.75
2017-02-22T05:34:58.710Z,999.78
2017-02-22T05:36:08.457Z,999.77
2017-02-22T05:37:17.792Z,999.88
2017-02-22T05:38:26.776Z,999.73
2017-02-22T05:39:35.693Z,999.75
2017-02-22T05:40:45.453Z,999.84
2017-02-22T05:41:54.775Z,999.7
2017-02-22T05:43:04.517Z,999.81
2017-02-22T05:44:14.928Z,999.75
2017-02-22T05:45:24.248Z,999.76
2017-02-22T05:46:33.982Z,999.72
2017-02-22T05:47:43.305Z,999.71
2017-02-22T05:48:52.658Z,999.69
2017-02-22T05:50:02.544Z,999.69
2017-02-22T05:51:12.692Z,999.72
2017-02-22T05:52:23.256Z,999.62
2017-02-22T05:53:32.176Z,999.71
2017-02-22T05:54:42.322Z,999.63
2017-02-22T05:55:51.866Z,999.67
2017-02-22T05:57:02.410Z,999.71
2017-02-22T05:58:11.762Z,999.59
2017-02-22T05:59:20.688Z,999.7
2017-02-22T06:00:30.419Z,999.63
2017-02-22T06:01:39.898Z,999.64
2017-02-22T06:02:49.231Z,999.65
2017-02-22T06:03:58.974Z,999.71
2017-02-22T06:05:08.290Z,999.72
2017-02-22T06:06:17.201Z,999.7
2017-02-22T06:07:26.222Z,999.69
2017-02-22T06:08:35.964Z,999.8
2017-02-22T06:09:45.317Z,999.67
2017-02-22T06:10:55.060Z,999.83
2017-02-22T06:12:04.820Z,999.74
2017-02-22T06:13:14.656Z,999.63
2017-02-22T06:14:23.978Z,999.65
2017-02-22T06:15:34.113Z,999.59
2017-02-22T06:16:43.028Z,999.59
2017-02-22T06:17:52.366Z,999.62
2017-02-22T06:19:03.177Z,999.61
2017-02-22T06:20:12.087Z,999.63
2017-02-22T06:21:21.025Z,999.72
2017-02-22T06:22:29.964Z,999.84
2017-02-22T06:23:39.287Z,999.75
2017-02-22T06:24:49.941Z,999.79
2017-02-22T06:25:59.693Z,999.74
2017-02-22T06:27:09.852Z,999.76
2017-02-22T06:28:19.185Z,999.71
2017-02-22T06:29:29.352Z,999.72
2017-02-22T06:30:38.614Z,999.7
2017-02-22T06:31:47.947Z,999.7
2017-02-22T06:32:57.265Z,999.72
2017-02-22T06:34:07.017Z,999.7
2017-02-22T06:35:16.765Z,999.73
2017-02-22T06:36:26.818Z,999.68
2017-02-22T06:37:36.976Z,999.67
2017-02-22T06:38:46.718Z,999.63
2017-02-22T06:39:56.871Z,999.66
2017-02-22T06:41:06.620Z,999.7
2017-02-22T06:42:16.059Z,999.61
2017-02-22T06:43:25.796Z,999.6
2017-02-22T06:44:34.712Z,999.72
2017-02-22T06:45:44.036Z,999.64
2017-02-22T06:46:53.381Z,999.67
2017-02-22T06:48:02.302Z,999.68
2017-02-22T06:49:12.452Z,999.73
2017-02-22T06:50:22.180Z,999.79
2017-02-22T06:51:31.924Z,999.79
2017-02-22T06:52:41.246Z,999.68
2017-02-22T06:53:51.386Z,999.77
2017-02-22T06:55:01.136Z,999.76
2017-02-22T06:56:10.490Z,999.79
2017-02-22T06:57:19.809Z,999.82
2017-02-22T06:58:29.535Z,999.78
2017-02-22T06:59:39.686Z,999.79
2017-02-22T07:00:50.249Z,999.71
2017-02-22T07:01:59.979Z,999.6
2017-02-22T07:03:09.716Z,999.74
2017-02-22T07:04:19.451Z,999.73
2017-02-22T07:05:29.177Z,999.67
2017-02-22T07:06:38.503Z,999.74
2017-02-22T07:07:48.253Z,999.78
2017-02-22T07:08:57.995Z,999.64
2017-02-22T07:10:07.324Z,999.79
2017-02-22T07:11:16.653Z,999.65
2017-02-22T07:12:25.993Z,999.72
2017-02-22T07:13:35.563Z,999.73
2017-02-22T07:14:46.130Z,999.68
2017-02-22T07:15:55.854Z,999.69
2017-02-22T07:17:05.185Z,999.77
2017-02-22T07:18:14.502Z,999.71
2017-02-22T07:19:23.515Z,999.77
2017-02-22T07:20:33.248Z,999.66
2017-02-22T07:21:42.987Z,999.76
2017-02-22T07:22:52.303Z,999.76
2017-02-22T07:24:02.048Z,999.82
2017-02-22T07:25:11.575Z,999.79
2017-02-22T07:26:21.338Z,999.77
2017-02-22T07:27:31.070Z,999.81
2017-02-22T07:28:40.411Z,999.92
2017-02-22T07:29:49.759Z,999.83
2017-02-22T07:30:59.645Z,999.85
2017-02-22T07:32:09.407Z,999.92
2017-02-22T07:33:19.153Z,999.85
2017-02-22T07:34:28.883Z,999.84
2017-02-22T07:35:39.044Z,999.78
2017-02-22T07:36:48.938Z,999.77
2017-02-22T07:37:58.670Z,999.84
2017-02-22T07:39:08.815Z,999.87
2017-02-22T07:40:18.560Z,999.94
2017-02-22T07:41:27.883Z,999.86
2017-02-22T07:42:37.413Z,999.81
2017-02-22T07:43:46.747Z,999.83
2017-02-22T07:44:57.319Z,999.93
2017-02-22T07:46:07.054Z,999.83
2017-02-22T07:47:16.392Z,999.77
2017-02-22T07:48:26.029Z,999.66
2017-02-22T07:49:36.587Z,999.72
2017-02-22T07:50:46.315Z,999.62
2017-02-22T07:51:55.245Z,999.68
2017-02-22T07:53:04.575Z,999.72
2017-02-22T07:54:14.305Z,999.71
2017-02-22T07:55:23.221Z,999.66
2017-02-22T07:56:32.943Z,999.64
2017-02-22T07:57:41.856Z,999.67
2017-02-22T07:58:51.591Z,999.79
2017-02-22T08:00:01.797Z,999.6
2017-02-22T08:01:11.120Z,999.79
2017-02-22T08:02:21.288Z,999.77
2017-02-22T08:03:30.625Z,999.71
2017-02-22T08:04:41.602Z,999.67
2017-02-22T08:05:51.397Z,999.65
2017-02-22T08:07:00.729Z,999.63
2017-02-22T08:08:10.051Z,999.65
2017-02-22T08:09:19.373Z,999.66
2017-02-22T08:10:29.129Z,999.58
2017-02-22T08:11:39.525Z,999.63
2017-02-22T08:12:48.860Z,999.64
2017-02-22T08:13:58.202Z,999.69
2017-02-22T08:15:07.530Z,999.66
2017-02-22T08:16:17.270Z,999.68
2017-02-22T08:17:26.766Z,999.7
2017-02-22T08:18:36.111Z,999.65
2017-02-22T08:19:45.451Z,999.63
2017-02-22T08:20:54.801Z,999.61
2017-02-22T08:22:04.546Z,999.61
2017-02-22T08:23:14.434Z,999.74
2017-02-22T08:24:23.788Z,999.74
2017-02-22T08:25:33.113Z,999.63
2017-02-22T08:26:42.452Z,999.78
2017-02-22T08:27:52.203Z,999.74
2017-02-22T08:29:02.362Z,999.86
2017-02-22T08:30:11.702Z,999.76
2017-02-22T08:31:22.254Z,999.74
2017-02-22T08:32:31.996Z,999.74
2017-02-22T08:33:41.334Z,999.66
2017-02-22T08:34:51.340Z,999.73
2017-02-22T08:36:00.679Z,999.81
2017-02-22T08:37:10.813Z,999.76
2017-02-22T08:38:19.748Z,999.74
2017-02-22T08:39:29.898Z,999.62
2017-02-22T08:40:39.218Z,999.71
2017-02-22T08:41:49.403Z,999.69
2017-02-22T08:42:58.726Z,999.72
2017-02-22T08:44:08.460Z,999.67
2017-02-22T08:45:17.395Z,999.69
2017-02-22T08:46:27.275Z,999.7
2017-02-22T08:47:36.613Z,999.67
2017-02-22T08:48:45.526Z,999.67
2017-02-22T08:49:55.288Z,999.74
2017-02-22T08:51:04.626Z,999.59
2017-02-22T08:52:14.365Z,999.68
2017-02-22T08:53:24.095Z,999.81
2017-02-22T08:54:34.254Z,999.69
2017-02-22T08:55:43.593Z,999.73
2017-02-22T08:56:52.524Z,999.75
2017-02-22T08:58:02.651Z,999.76
2017-02-22T08:59:11.973Z,999.69
2017-02-22T09:00:21.327Z,999.63
2017-02-22T09:01:30.251Z,999.63
2017-02-22T09:02:39.609Z,999.74
2017-02-22T09:03:49.489Z,999.76
2017-02-22T09:04:58.824Z,999.97
2017-02-22T09:06:08.564Z,999.85
2017-02-22T09:07:17.891Z,999.93
2017-02-22T09:08:27.224Z,1000.11
2017-02-22T09:09:36.288Z,999.87
2017-02-22T09:10:45.614Z,999.82
2017-02-22T09:11:54.536Z,999.89
2017-02-22T09:13:03.474Z,999.97
2017-02-22T09:14:13.642Z,999.91
2017-02-22T09:15:23.018Z,999.97
2017-02-22T09:16:33.183Z,1000.13
2017-02-22T09:17:42.733Z,1000.12
2017-02-22T09:18:51.985Z,999.98
2017-02-22T09:20:02.552Z,1000.07
2017-02-22T09:21:11.923Z,999.99
2017-02-22T09:22:20.846Z,999.98
2017-02-22T09:23:29.765Z,1000.09
2017-02-22T09:24:38.685Z,1000.09
2017-02-22T09:25:48.433Z,1000.01
2017-02-22T09:26:58.261Z,1000.07
2017-02-22T09:28:08.406Z,1000.08
2017-02-22T09:29:18.149Z,1000.06
2017-02-22T09:30:27.901Z,1000.15
2017-02-22T09:31:37.231Z,1000.26
2017-02-22T09:32:46.860Z,1000.1
2017-02-22T09:33:56.205Z,1000.09
2017-02-22T09:35:05.531Z,1000.14
2017-02-22T09:36:14.443Z,1000.19
2017-02-22T09:37:23.786Z,1000.27
2017-02-22T09:38:34.191Z,1000.29
2017-02-22T09:39:43.525Z,1000.22
2017-02-22T09:40:52.853Z,1000.33
2017-02-22T09:42:02.603Z,1000.18
2017-02-22T09:43:12.331Z,1000.11
2017-02-22T09:44:21.861Z,1000.22
2017-02-22T09:45:31.176Z,1000.16
2017-02-22T09:46:40.922Z,1000.3
2017-02-22T09:47:50.272Z,1000.35
2017-02-22T09:49:00.032Z,1000.18
2017-02-22T09:50:09.431Z,1000.19
2017-02-22T09:51:18.759Z,1000.28
2017-02-22T09:52:28.100Z,1000.25
2017-02-22T09:53:37.459Z,1000.34
2017-02-22T09:54:46.413Z,1000.3
2017-02-22T09:55:55.420Z,1000.35
2017-02-22T09:57:04.331Z,1000.37
2017-02-22T09:58:14.065Z,1000.31
2017-02-22T09:59:22.995Z,1000.35
2017-02-22T10:00:31.939Z,1000.38
2017-02-22T10:01:41.422Z,1000.35
2017-02-22T10:02:50.366Z,1000.23
2017-02-22T10:03:59.692Z,1000.22
2017-02-22T10:05:10.263Z,1000.28
2017-02-22T10:06:20.416Z,1000.36
2017-02-22T10:07:30.318Z,1000.22
2017-02-22T10:08:40.872Z,1000.33
2017-02-22T10:09:50.197Z,1000.4
2017-02-22T10:10:59.526Z,1000.33
2017-02-22T10:12:08.849Z,1000.33
2017-02-22T10:13:18.646Z,1000.32
2017-02-22T10:14:28.802Z,1000.42
2017-02-22T10:15:37.716Z,1000.29
2017-02-22T10:16:46.634Z,1000.35
2017-02-22T10:17:56.385Z,1000.42
2017-02-22T10:19:05.561Z,1000.43
2017-02-22T10:20:14.497Z,1000.46
2017-02-22T10:21:24.245Z,1000.23
2017-02-22T10:22:33.565Z,1000.33
2017-02-22T10:23:42.503Z,1000.36
2017-02-22T10:24:52.341Z,1000.4
2017-02-22T10:26:02.540Z,1000.49
2017-02-22T10:27:11.874Z,1000.58
2017-02-22T10:28:21.223Z,1000.5
2017-02-22T10:29:30.957Z,1000.65
2017-02-22T10:30:40.195Z,1000.53
2017-02-22T10:31:50.344Z,1000.47
2017-02-22T10:32:59.266Z,1000.56
2017-02-22T10:34:09.017Z,1000.44
2017-02-22T10:35:18.345Z,1000.47
2017-02-22T10:36:28.284Z,1000.71
2017-02-22T10:37:38.026Z,1000.54
2017-02-22T10:38:48.170Z,1000.47
2017-02-22T10:39:57.098Z,1000.53
2017-02-22T10:41:06.846Z,1000.6
2017-02-22T10:42:16.644Z,1000.66
2017-02-22T10:43:25.557Z,1000.59
2017-02-22T10:44:35.715Z,1000.46
2017-02-22T10:45:45.452Z,1000.71
2017-02-22T10:46:54.789Z,1000.75
2017-02-22T10:48:04.535Z,1000.63
2017-02-22T10:49:13.859Z,1000.84
2017-02-22T10:50:23.643Z,1000.78
2017-02-22T10:51:33.373Z,1000.76
2017-02-22T10:52:42.707Z,1000.68
2017-02-22T10:53:51.766Z,1000.66
2017-02-22T10:55:01.118Z,1000.61
2017-02-22T10:56:10.847Z,1000.73
2017-02-22T10:57:19.774Z,1000.88
2017-02-22T10:58:29.520Z,1000.77
2017-02-22T10:59:38.536Z,1000.62
2017-02-22T11:00:47.449Z,1000.8
2017-02-22T11:01:57.179Z,1000.75
2017-02-22T11:03:06.527Z,1000.72
2017-02-22T11:04:15.881Z,1000.71
2017-02-22T11:05:25.470Z,1000.58
2017-02-22T11:06:34.809Z,1000.69
2017-02-22T11:07:44.547Z,1000.73
2017-02-22T11:08:53.866Z,1000.6
2017-02-22T11:10:04.012Z,1000.73
2017-02-22T11:11:12.989Z,1000.69
2017-02-22T11:12:22.323Z,1000.69
2017-02-22T11:13:31.235Z,1000.59
2017-02-22T11:14:40.586Z,1000.62
2017-02-22T11:15:49.916Z,1000.63
2017-02-22T11:16:58.932Z,1000.7
2017-02-22T11:18:08.258Z,1000.73
2017-02-22T11:19:17.590Z,1000.56
2017-02-22T11:20:26.931Z,1000.59
2017-02-22T11:21:35.863Z,1000.49
2017-02-22T11:22:45.745Z,1000.65
2017-02-22T11:23:54.670Z,1000.66
2017-02-22T11:25:04.020Z,1000.68
2017-02-22T11:26:13.355Z,1000.7
2017-02-22T11:27:22.267Z,1000.6
2017-02-22T11:28:31.300Z,1000.56
2017-02-22T11:29:40.627Z,1000.53
2017-02-22T11:30:49.963Z,1000.65
2017-02-22T11:31:58.889Z,1000.43
2017-02-22T11:33:08.217Z,1000.35
2017-02-22T11:34:18.169Z,1000.36
2017-02-22T11:35:27.505Z,1000.54
2017-02-22T11:36:36.450Z,1000.43
2017-02-22T11:37:45.797Z,1000.48
2017-02-22T11:38:54.712Z,1000.6
2017-02-22T11:40:04.462Z,1000.52
2017-02-22T11:41:14.615Z,1000.58
2017-02-22T11:42:23.965Z,1000.45
2017-02-22T11:43:33.714Z,1000.5
2017-02-22T11:44:42.648Z,1000.47
2017-02-22T11:45:51.717Z,1000.52
2017-02-22T11:47:00.643Z,1000.51
2017-02-22T11:48:09.975Z,1000.6
2017-02-22T11:49:19.724Z,1000.61
2017-02-22T11:50:29.068Z,1000.54
2017-02-22T11:51:38.563Z,1000.68
2017-02-22T11:52:47.903Z,1000.51
2017-02-22T11:53:57.245Z,1000.64
2017-02-22T11:55:07.003Z,1000.63
2017-02-22T11:56:16.356Z,1000.65
2017-02-22T11:57:26.289Z,1000.69
2017-02-22T11:58:36.052Z,1000.7
2017-02-22T11:59:44.983Z,1000.58
2017-02-22T12:00:53.915Z,1000.64
2017-02-22T12:02:03.254Z,1000.55
2017-02-22T12:03:12.839Z,1000.57
2017-02-22T12:04:21.764Z,1000.49
2017-02-22T12:05:30.707Z,1000.91
2017-02-22T12:06:39.638Z,1000.6
2017-02-22T12:07:48.987Z,1000.65
2017-02-22T12:08:58.103Z,1000.57
2017-02-22T12:10:07.877Z,1000.53
2017-02-22T12:11:17.610Z,1000.46
2017-02-22T12:12:27.759Z,1000.75
2017-02-22T12:13:37.510Z,1000.42
2017-02-22T12:14:47.303Z,1000.41
2017-02-22T12:15:56.255Z,1000.4
2017-02-22T12:17:05.993Z,1000.39
2017-02-22T12:18:14.915Z,1000.33
2017-02-22T12:19:23.837Z,1000.12
2017-02-22T12:20:33.744Z,1000.22
2017-02-22T12:21:43.078Z,1000.45
2017-02-22T12:22:52.825Z,1000.3
2017-02-22T12:24:02.563Z,1000.32
2017-02-22T12:25:11.487Z,1000.26
2017-02-22T12:26:21.328Z,1000.36
2017-02-22T12:27:30.649Z,1000.41
2017-02-22T12:28:39.576Z,1000.38
2017-02-22T12:29:48.904Z,1000.61
2017-02-22T12:30:58.233Z,1000.38
2017-02-22T12:32:07.261Z,1000.33
2017-02-22T12:33:16.201Z,1000.55
2017-02-22T12:34:25.529Z,1000.49
2017-02-22T12:35:34.861Z,1000.4
2017-02-22T12:36:44.191Z,1000.44
2017-02-22T12:37:53.681Z,1000.53
2017-02-22T12:39:02.608Z,1000.4
2017-02-22T12:40:11.535Z,1000.46
2017-02-22T12:41:20.449Z,1000.45
2017-02-22T12:42:29.769Z,1000.35
2017-02-22T12:43:39.199Z,1000.28
2017-02-22T12:44:48.953Z,1000.26
2017-02-22T12:45:57.877Z,1000.22
2017-02-22T12:47:06.824Z,1000.23
2017-02-22T12:48:16.178Z,1000.26
2017-02-22T12:49:26.173Z,1000.35
2017-02-22T12:50:36.345Z,1000.3
2017-02-22T12:51:45.702Z,1000.29
2017-02-22T12:52:55.453Z,1000.25
2017-02-22T12:54:04.822Z,1000.38
2017-02-22T12:55:14.338Z,1000.17
2017-02-22T12:56:24.081Z,1000.2
2017-02-22T12:57:34.226Z,1000.2
2017-02-22T12:58:43.150Z,1000.13
2017-02-22T12:59:52.113Z,1000.08
2017-02-22T13:01:02.317Z,1000.02
2017-02-22T13:02:11.236Z,999.94
2017-02-22T13:03:21.404Z,999.92
2017-02-22T13:04:31.573Z,999.9
2017-02-22T13:05:40.893Z,999.94
2017-02-22T13:06:51.087Z,1000.03
2017-02-22T13:08:00.832Z,999.99
2017-02-22T13:09:09.777Z,1000.05
2017-02-22T13:10:19.992Z,999.86
2017-02-22T13:11:30.140Z,999.77
2017-02-22T13:12:39.280Z,999.92
2017-02-22T13:13:48.602Z,1000.01
2017-02-22T13:14:58.342Z,999.96
2017-02-22T13:16:08.101Z,999.89
2017-02-22T13:17:17.905Z,1000.07
2017-02-22T13:18:28.505Z,1000.09
2017-02-22T13:19:38.242Z,999.95
2017-02-22T13:20:48.392Z,1000.07
2017-02-22T13:21:58.138Z,999.92
2017-02-22T13:23:07.507Z,999.88
2017-02-22T13:24:17.041Z,999.92
2017-02-22T13:25:26.394Z,999.96
2017-02-22T13:26:36.147Z,999.91
2017-02-22T13:27:45.503Z,999.95
2017-02-22T13:28:54.417Z,999.88
2017-02-22T13:30:04.680Z,999.74
2017-02-22T13:31:14.010Z,999.75
2017-02-22T13:32:23.753Z,999.85
2017-02-22T13:33:33.514Z,999.89
2017-02-22T13:34:42.853Z,999.85
2017-02-22T13:35:51.928Z,999.94
2017-02-22T13:37:01.657Z,999.98
2017-02-22T13:38:11.794Z,1000
2017-02-22T13:39:20.717Z,999.9
2017-02-22T13:40:29.630Z,999.98
2017-02-22T13:41:39.267Z,1000.04
2017-02-22T13:42:48.183Z,999.91
2017-02-22T13:43:57.116Z,999.92
2017-02-22T13:45:06.858Z,999.9
2017-02-22T13:46:16.601Z,999.98
2017-02-22T13:47:25.594Z,1000.1
2017-02-22T13:48:34.930Z,1000.06
2017-02-22T13:49:45.086Z,1000.17
2017-02-22T13:50:54.418Z,1000.2
2017-02-22T13:52:03.754Z,1000.36
2017-02-22T13:53:12.719Z,1000.3
2017-02-22T13:54:22.056Z,1000.45
2017-02-22T13:55:31.392Z,1000.31
2017-02-22T13:56:41.124Z,1000.36
2017-02-22T13:57:50.034Z,1000.24
2017-02-22T13:58:59.462Z,1000.21
2017-02-22T14:00:08.405Z,1000.24
2017-02-22T14:01:18.147Z,1000.23
2017-02-22T14:02:27.481Z,1000.45
2017-02-22T14:03:36.847Z,1000.15
2017-02-22T14:04:46.567Z,1000.19
2017-02-22T14:05:55.485Z,1000.13
2017-02-22T14:07:05.631Z,1000.02
2017-02-22T14:08:15.382Z,1000
2017-02-22T14:09:24.718Z,1000.05
2017-02-22T14:10:34.860Z,1000.08
2017-02-22T14:11:44.594Z,1000.05